sensor_id;sensor_type;location;lat;lon;timestamp;P1;durP1;ratioP1;P2;durP2;ratioP2
58354;SDS011;44160;49.080;19.302;2023-06-22T00:01:56;10.73;;;8.13;;
58354;SDS011;44160;49.080;19.302;2023-06-22T00:04:22;11.27;;;8.32;;
58354;SDS011;44160;49.080;19.302;2023-06-22T00:06:48;12.40;;;7.10;;
58354;SDS011;44160;49.080;19.302;2023-06-22T00:09:14;11.35;;;6.88;;
58354;SDS011;44160;49.080;19.302;2023-06-22T00:11:40;9.90;;;7.15;;
58354;SDS011;44160;49.080;19.302;2023-06-22T00:14:06;8.98;;;5.93;;
58354;SDS011;44160;49.080;19.302;2023-06-22T00:16:32;10.55;;;5.60;;
58354;SDS011;44160;49.080;19.302;2023-06-22T00:18:58;8.75;;;5.25;;
58354;SDS011;44160;49.080;19.302;2023-06-22T00:21:29;8.23;;;5.43;;
58354;SDS011;44160;49.080;19.302;2023-06-22T00:23:55;10.25;;;4.70;;
58354;SDS011;44160;49.080;19.302;2023-06-22T00:26:22;9.02;;;5.68;;
58354;SDS011;44160;49.080;19.302;2023-06-22T00:28:48;11.63;;;5.28;;
58354;SDS011;44160;49.080;19.302;2023-06-22T00:31:14;10.07;;;5.20;;
58354;SDS011;44160;49.080;19.302;2023-06-22T00:33:40;10.60;;;5.70;;
58354;SDS011;44160;49.080;19.302;2023-06-22T00:36:06;14.70;;;4.88;;
58354;SDS011;44160;49.080;19.302;2023-06-22T00:38:38;8.45;;;4.70;;
58354;SDS011;44160;49.080;19.302;2023-06-22T00:41:05;11.45;;;5.10;;
58354;SDS011;44160;49.080;19.302;2023-06-22T00:43:31;7.68;;;4.80;;
58354;SDS011;44160;49.080;19.302;2023-06-22T00:45:57;7.93;;;5.38;;
58354;SDS011;44160;49.080;19.302;2023-06-22T00:48:23;7.18;;;4.03;;
58354;SDS011;44160;49.080;19.302;2023-06-22T00:50:49;6.03;;;4.25;;
58354;SDS011;44160;49.080;19.302;2023-06-22T00:53:16;9.18;;;4.88;;
58354;SDS011;44160;49.080;19.302;2023-06-22T00:55:43;9.48;;;4.90;;
58354;SDS011;44160;49.080;19.302;2023-06-22T00:58:12;5.95;;;4.78;;
58354;SDS011;44160;49.080;19.302;2023-06-22T01:00:39;7.82;;;4.85;;
58354;SDS011;44160;49.080;19.302;2023-06-22T01:03:06;7.35;;;4.75;;
58354;SDS011;44160;49.080;19.302;2023-06-22T01:05:34;7.63;;;4.70;;
58354;SDS011;44160;49.080;19.302;2023-06-22T01:10:43;8.35;;;4.60;;
58354;SDS011;44160;49.080;19.302;2023-06-22T01:15:49;9.77;;;4.55;;
58354;SDS011;44160;49.080;19.302;2023-06-22T01:18:17;8.27;;;4.10;;
58354;SDS011;44160;49.080;19.302;2023-06-22T01:20:44;6.18;;;4.10;;
58354;SDS011;44160;49.080;19.302;2023-06-22T01:23:19;13.70;;;4.50;;
58354;SDS011;44160;49.080;19.302;2023-06-22T01:28:39;11.10;;;4.90;;
58354;SDS011;44160;49.080;19.302;2023-06-22T01:31:07;10.98;;;5.25;;
58354;SDS011;44160;49.080;19.302;2023-06-22T01:33:37;5.32;;;4.05;;
58354;SDS011;44160;49.080;19.302;2023-06-22T01:36:03;8.48;;;4.50;;
58354;SDS011;44160;49.080;19.302;2023-06-22T01:38:30;6.07;;;4.13;;
58354;SDS011;44160;49.080;19.302;2023-06-22T01:40:57;8.25;;;4.00;;
58354;SDS011;44160;49.080;19.302;2023-06-22T01:43:24;5.93;;;4.35;;
58354;SDS011;44160;49.080;19.302;2023-06-22T01:45:51;9.13;;;4.97;;
58354;SDS011;44160;49.080;19.302;2023-06-22T01:48:17;8.13;;;4.70;;
58354;SDS011;44160;49.080;19.302;2023-06-22T01:50:43;8.70;;;5.10;;
58354;SDS011;44160;49.080;19.302;2023-06-22T01:53:10;9.70;;;4.63;;
58354;SDS011;44160;49.080;19.302;2023-06-22T01:55:36;6.90;;;4.93;;
58354;SDS011;44160;49.080;19.302;2023-06-22T01:58:02;9.23;;;4.30;;
58354;SDS011;44160;49.080;19.302;2023-06-22T02:00:28;5.55;;;4.22;;
58354;SDS011;44160;49.080;19.302;2023-06-22T02:02:57;8.65;;;4.68;;
58354;SDS011;44160;49.080;19.302;2023-06-22T02:05:26;6.82;;;5.45;;
58354;SDS011;44160;49.080;19.302;2023-06-22T02:10:33;8.00;;;5.38;;
58354;SDS011;44160;49.080;19.302;2023-06-22T02:13:00;7.18;;;3.80;;
58354;SDS011;44160;49.080;19.302;2023-06-22T02:15:26;12.48;;;4.30;;
58354;SDS011;44160;49.080;19.302;2023-06-22T02:17:53;8.77;;;4.43;;
58354;SDS011;44160;49.080;19.302;2023-06-22T02:20:19;13.32;;;4.32;;
58354;SDS011;44160;49.080;19.302;2023-06-22T02:22:45;11.65;;;4.85;;
58354;SDS011;44160;49.080;19.302;2023-06-22T02:25:11;8.30;;;4.07;;
58354;SDS011;44160;49.080;19.302;2023-06-22T02:27:37;9.43;;;4.50;;
58354;SDS011;44160;49.080;19.302;2023-06-22T02:30:07;8.38;;;5.20;;
58354;SDS011;44160;49.080;19.302;2023-06-22T02:32:34;12.32;;;6.10;;
58354;SDS011;44160;49.080;19.302;2023-06-22T02:35:00;12.30;;;6.93;;
58354;SDS011;44160;49.080;19.302;2023-06-22T02:37:29;11.35;;;6.97;;
58354;SDS011;44160;49.080;19.302;2023-06-22T02:39:55;12.52;;;6.93;;
58354;SDS011;44160;49.080;19.302;2023-06-22T02:42:21;10.00;;;6.25;;
58354;SDS011;44160;49.080;19.302;2023-06-22T02:44:47;10.43;;;6.10;;
58354;SDS011;44160;49.080;19.302;2023-06-22T02:47:13;13.77;;;6.57;;
58354;SDS011;44160;49.080;19.302;2023-06-22T02:49:39;9.05;;;5.13;;
58354;SDS011;44160;49.080;19.302;2023-06-22T02:52:06;12.70;;;5.40;;
58354;SDS011;44160;49.080;19.302;2023-06-22T02:54:32;7.03;;;5.22;;
58354;SDS011;44160;49.080;19.302;2023-06-22T02:56:59;10.80;;;4.90;;
58354;SDS011;44160;49.080;19.302;2023-06-22T02:59:27;7.72;;;5.28;;
58354;SDS011;44160;49.080;19.302;2023-06-22T03:01:53;5.20;;;4.47;;
58354;SDS011;44160;49.080;19.302;2023-06-22T03:04:21;9.25;;;4.53;;
58354;SDS011;44160;49.080;19.302;2023-06-22T03:06:47;9.13;;;4.70;;
58354;SDS011;44160;49.080;19.302;2023-06-22T03:09:16;10.65;;;4.20;;
58354;SDS011;44160;49.080;19.302;2023-06-22T03:11:42;7.57;;;3.97;;
58354;SDS011;44160;49.080;19.302;2023-06-22T03:14:08;6.60;;;4.78;;
58354;SDS011;44160;49.080;19.302;2023-06-22T03:16:34;6.88;;;4.32;;
58354;SDS011;44160;49.080;19.302;2023-06-22T03:19:01;8.25;;;4.13;;
58354;SDS011;44160;49.080;19.302;2023-06-22T03:21:28;8.30;;;4.13;;
58354;SDS011;44160;49.080;19.302;2023-06-22T03:23:54;5.85;;;4.20;;
58354;SDS011;44160;49.080;19.302;2023-06-22T03:26:20;5.65;;;3.70;;
58354;SDS011;44160;49.080;19.302;2023-06-22T03:28:46;9.50;;;4.47;;
58354;SDS011;44160;49.080;19.302;2023-06-22T03:31:12;5.53;;;3.70;;
58354;SDS011;44160;49.080;19.302;2023-06-22T03:33:38;9.57;;;4.22;;
58354;SDS011;44160;49.080;19.302;2023-06-22T03:36:04;8.10;;;4.03;;
58354;SDS011;44160;49.080;19.302;2023-06-22T03:38:30;9.85;;;5.65;;
58354;SDS011;44160;49.080;19.302;2023-06-22T03:40:57;8.10;;;6.05;;
58354;SDS011;44160;49.080;19.302;2023-06-22T03:43:23;8.55;;;5.80;;
58354;SDS011;44160;49.080;19.302;2023-06-22T03:45:49;8.85;;;6.25;;
58354;SDS011;44160;49.080;19.302;2023-06-22T03:48:15;9.57;;;6.15;;
58354;SDS011;44160;49.080;19.302;2023-06-22T03:50:41;9.68;;;5.60;;
58354;SDS011;44160;49.080;19.302;2023-06-22T03:53:09;10.55;;;5.55;;
58354;SDS011;44160;49.080;19.302;2023-06-22T03:55:35;8.50;;;5.07;;
58354;SDS011;44160;49.080;19.302;2023-06-22T03:58:01;11.57;;;5.35;;
58354;SDS011;44160;49.080;19.302;2023-06-22T04:00:31;11.07;;;6.75;;
58354;SDS011;44160;49.080;19.302;2023-06-22T04:02:57;9.73;;;5.57;;
58354;SDS011;44160;49.080;19.302;2023-06-22T04:05:23;15.50;;;6.18;;
58354;SDS011;44160;49.080;19.302;2023-06-22T04:07:49;10.75;;;5.72;;
58354;SDS011;44160;49.080;19.302;2023-06-22T04:10:15;9.50;;;6.63;;
58354;SDS011;44160;49.080;19.302;2023-06-22T04:12:41;13.35;;;6.45;;
58354;SDS011;44160;49.080;19.302;2023-06-22T04:15:07;12.20;;;6.57;;
58354;SDS011;44160;49.080;19.302;2023-06-22T04:17:33;12.85;;;7.03;;
58354;SDS011;44160;49.080;19.302;2023-06-22T04:19:59;7.60;;;5.97;;
58354;SDS011;44160;49.080;19.302;2023-06-22T04:22:25;7.90;;;6.28;;
58354;SDS011;44160;49.080;19.302;2023-06-22T04:24:51;8.18;;;6.38;;
58354;SDS011;44160;49.080;19.302;2023-06-22T04:27:18;10.15;;;5.95;;
58354;SDS011;44160;49.080;19.302;2023-06-22T04:29:44;14.23;;;6.13;;
58354;SDS011;44160;49.080;19.302;2023-06-22T04:32:14;14.32;;;5.43;;
58354;SDS011;44160;49.080;19.302;2023-06-22T04:34:40;9.70;;;5.63;;
58354;SDS011;44160;49.080;19.302;2023-06-22T04:37:06;9.57;;;4.72;;
58354;SDS011;44160;49.080;19.302;2023-06-22T04:39:32;8.20;;;4.95;;
58354;SDS011;44160;49.080;19.302;2023-06-22T04:41:58;9.43;;;5.13;;
58354;SDS011;44160;49.080;19.302;2023-06-22T04:44:25;10.20;;;4.85;;
58354;SDS011;44160;49.080;19.302;2023-06-22T04:46:54;13.23;;;5.95;;
58354;SDS011;44160;49.080;19.302;2023-06-22T04:49:24;6.35;;;4.18;;
58354;SDS011;44160;49.080;19.302;2023-06-22T04:51:58;9.88;;;4.63;;
58354;SDS011;44160;49.080;19.302;2023-06-22T04:54:24;9.27;;;4.38;;
58354;SDS011;44160;49.080;19.302;2023-06-22T04:57:07;10.52;;;5.07;;
58354;SDS011;44160;49.080;19.302;2023-06-22T04:59:36;7.20;;;4.63;;
58354;SDS011;44160;49.080;19.302;2023-06-22T05:02:04;6.88;;;4.10;;
58354;SDS011;44160;49.080;19.302;2023-06-22T05:04:31;8.18;;;4.57;;
58354;SDS011;44160;49.080;19.302;2023-06-22T05:06:57;9.82;;;4.05;;
58354;SDS011;44160;49.080;19.302;2023-06-22T05:09:24;6.68;;;3.90;;
58354;SDS011;44160;49.080;19.302;2023-06-22T05:11:50;7.93;;;3.75;;
58354;SDS011;44160;49.080;19.302;2023-06-22T05:14:16;8.63;;;3.50;;
58354;SDS011;44160;49.080;19.302;2023-06-22T05:16:42;6.97;;;3.70;;
58354;SDS011;44160;49.080;19.302;2023-06-22T05:19:09;9.45;;;3.72;;
58354;SDS011;44160;49.080;19.302;2023-06-22T05:21:35;9.00;;;3.38;;
58354;SDS011;44160;49.080;19.302;2023-06-22T05:24:01;9.38;;;3.80;;
58354;SDS011;44160;49.080;19.302;2023-06-22T05:26:27;6.95;;;3.90;;
58354;SDS011;44160;49.080;19.302;2023-06-22T05:28:53;9.38;;;4.05;;
58354;SDS011;44160;49.080;19.302;2023-06-22T05:31:20;4.72;;;3.10;;
58354;SDS011;44160;49.080;19.302;2023-06-22T05:33:46;7.65;;;3.65;;
58354;SDS011;44160;49.080;19.302;2023-06-22T05:36:13;6.93;;;2.90;;
58354;SDS011;44160;49.080;19.302;2023-06-22T05:38:39;10.07;;;3.05;;
58354;SDS011;44160;49.080;19.302;2023-06-22T05:41:06;5.68;;;2.80;;
58354;SDS011;44160;49.080;19.302;2023-06-22T05:43:32;6.22;;;2.70;;
58354;SDS011;44160;49.080;19.302;2023-06-22T05:45:58;7.60;;;2.67;;
58354;SDS011;44160;49.080;19.302;2023-06-22T05:48:24;4.07;;;2.60;;
58354;SDS011;44160;49.080;19.302;2023-06-22T05:50:50;5.68;;;2.55;;
58354;SDS011;44160;49.080;19.302;2023-06-22T05:53:16;5.60;;;2.95;;
58354;SDS011;44160;49.080;19.302;2023-06-22T05:55:42;4.43;;;2.75;;
58354;SDS011;44160;49.080;19.302;2023-06-22T05:58:08;4.32;;;2.45;;
58354;SDS011;44160;49.080;19.302;2023-06-22T06:00:36;4.75;;;2.58;;
58354;SDS011;44160;49.080;19.302;2023-06-22T06:03:02;5.80;;;2.72;;
58354;SDS011;44160;49.080;19.302;2023-06-22T06:05:32;3.88;;;2.30;;
58354;SDS011;44160;49.080;19.302;2023-06-22T06:08:02;5.60;;;2.60;;
58354;SDS011;44160;49.080;19.302;2023-06-22T06:10:29;5.95;;;2.72;;
58354;SDS011;44160;49.080;19.302;2023-06-22T06:12:56;7.15;;;2.72;;
58354;SDS011;44160;49.080;19.302;2023-06-22T06:15:22;6.25;;;2.78;;
58354;SDS011;44160;49.080;19.302;2023-06-22T06:17:48;7.80;;;2.70;;
58354;SDS011;44160;49.080;19.302;2023-06-22T06:20:15;5.40;;;2.75;;
58354;SDS011;44160;49.080;19.302;2023-06-22T06:22:41;7.68;;;3.55;;
58354;SDS011;44160;49.080;19.302;2023-06-22T06:25:08;5.88;;;2.75;;
58354;SDS011;44160;49.080;19.302;2023-06-22T06:27:34;4.90;;;2.75;;
58354;SDS011;44160;49.080;19.302;2023-06-22T06:30:00;10.60;;;3.70;;
58354;SDS011;44160;49.080;19.302;2023-06-22T06:32:27;5.88;;;2.92;;
58354;SDS011;44160;49.080;19.302;2023-06-22T06:34:53;8.32;;;3.28;;
58354;SDS011;44160;49.080;19.302;2023-06-22T06:37:19;5.20;;;2.95;;
58354;SDS011;44160;49.080;19.302;2023-06-22T06:39:45;7.65;;;2.70;;
58354;SDS011;44160;49.080;19.302;2023-06-22T06:42:11;7.13;;;2.60;;
58354;SDS011;44160;49.080;19.302;2023-06-22T06:44:37;6.05;;;3.35;;
58354;SDS011;44160;49.080;19.302;2023-06-22T06:47:04;6.30;;;3.50;;
58354;SDS011;44160;49.080;19.302;2023-06-22T06:49:30;6.95;;;3.38;;
58354;SDS011;44160;49.080;19.302;2023-06-22T06:51:56;6.93;;;2.88;;
58354;SDS011;44160;49.080;19.302;2023-06-22T06:54:22;6.22;;;2.83;;
58354;SDS011;44160;49.080;19.302;2023-06-22T06:56:48;6.78;;;2.83;;
58354;SDS011;44160;49.080;19.302;2023-06-22T06:59:15;6.32;;;2.80;;
58354;SDS011;44160;49.080;19.302;2023-06-22T07:01:41;8.02;;;4.22;;
58354;SDS011;44160;49.080;19.302;2023-06-22T07:04:09;6.15;;;3.08;;
58354;SDS011;44160;49.080;19.302;2023-06-22T07:06:35;8.00;;;3.47;;
58354;SDS011;44160;49.080;19.302;2023-06-22T07:09:02;7.05;;;3.90;;
58354;SDS011;44160;49.080;19.302;2023-06-22T07:11:29;9.95;;;4.57;;
58354;SDS011;44160;49.080;19.302;2023-06-22T07:13:55;8.50;;;4.47;;
58354;SDS011;44160;49.080;19.302;2023-06-22T07:16:21;11.15;;;5.18;;
58354;SDS011;44160;49.080;19.302;2023-06-22T07:18:48;11.05;;;5.78;;
58354;SDS011;44160;49.080;19.302;2023-06-22T07:21:14;9.57;;;5.35;;
58354;SDS011;44160;49.080;19.302;2023-06-22T07:23:40;13.55;;;5.40;;
58354;SDS011;44160;49.080;19.302;2023-06-22T07:26:06;9.95;;;5.00;;
58354;SDS011;44160;49.080;19.302;2023-06-22T07:28:33;10.40;;;5.40;;
58354;SDS011;44160;49.080;19.302;2023-06-22T07:31:02;15.32;;;5.63;;
58354;SDS011;44160;49.080;19.302;2023-06-22T07:33:29;9.23;;;5.30;;
58354;SDS011;44160;49.080;19.302;2023-06-22T07:35:57;12.63;;;5.57;;
58354;SDS011;44160;49.080;19.302;2023-06-22T07:38:23;9.15;;;5.07;;
58354;SDS011;44160;49.080;19.302;2023-06-22T07:40:49;9.13;;;5.60;;
58354;SDS011;44160;49.080;19.302;2023-06-22T07:43:16;8.70;;;4.70;;
58354;SDS011;44160;49.080;19.302;2023-06-22T07:45:47;7.32;;;4.47;;
58354;SDS011;44160;49.080;19.302;2023-06-22T07:48:17;8.38;;;4.63;;
58354;SDS011;44160;49.080;19.302;2023-06-22T07:50:43;8.05;;;4.78;;
58354;SDS011;44160;49.080;19.302;2023-06-22T07:53:09;11.35;;;4.40;;
58354;SDS011;44160;49.080;19.302;2023-06-22T07:55:35;8.27;;;4.72;;
58354;SDS011;44160;49.080;19.302;2023-06-22T07:58:01;6.93;;;5.03;;
58354;SDS011;44160;49.080;19.302;2023-06-22T08:00:27;6.88;;;4.72;;
58354;SDS011;44160;49.080;19.302;2023-06-22T08:02:54;13.23;;;4.68;;
58354;SDS011;44160;49.080;19.302;2023-06-22T08:05:20;8.85;;;5.07;;
58354;SDS011;44160;49.080;19.302;2023-06-22T08:07:46;8.88;;;5.50;;
58354;SDS011;44160;49.080;19.302;2023-06-22T08:10:14;12.40;;;4.63;;
58354;SDS011;44160;49.080;19.302;2023-06-22T08:12:40;9.88;;;4.95;;
58354;SDS011;44160;49.080;19.302;2023-06-22T08:15:06;9.57;;;4.00;;
58354;SDS011;44160;49.080;19.302;2023-06-22T08:17:33;9.70;;;4.55;;
58354;SDS011;44160;49.080;19.302;2023-06-22T08:20:03;11.63;;;4.93;;
58354;SDS011;44160;49.080;19.302;2023-06-22T08:22:34;10.88;;;4.50;;
58354;SDS011;44160;49.080;19.302;2023-06-22T08:25:02;6.30;;;4.43;;
58354;SDS011;44160;49.080;19.302;2023-06-22T08:27:29;31.05;;;6.50;;
58354;SDS011;44160;49.080;19.302;2023-06-22T08:29:57;9.32;;;4.20;;
58354;SDS011;44160;49.080;19.302;2023-06-22T08:32:24;7.75;;;4.47;;
58354;SDS011;44160;49.080;19.302;2023-06-22T08:34:52;10.82;;;4.53;;
58354;SDS011;44160;49.080;19.302;2023-06-22T08:37:18;6.57;;;3.90;;
58354;SDS011;44160;49.080;19.302;2023-06-22T08:39:44;6.80;;;3.75;;
58354;SDS011;44160;49.080;19.302;2023-06-22T08:42:12;6.43;;;3.55;;
58354;SDS011;44160;49.080;19.302;2023-06-22T08:44:38;10.95;;;5.03;;
58354;SDS011;44160;49.080;19.302;2023-06-22T08:47:04;6.25;;;3.72;;
58354;SDS011;44160;49.080;19.302;2023-06-22T08:49:30;6.78;;;4.00;;
58354;SDS011;44160;49.080;19.302;2023-06-22T08:51:56;8.90;;;4.72;;
58354;SDS011;44160;49.080;19.302;2023-06-22T08:54:22;8.80;;;4.07;;
58354;SDS011;44160;49.080;19.302;2023-06-22T08:56:49;5.55;;;4.00;;
58354;SDS011;44160;49.080;19.302;2023-06-22T08:59:15;6.80;;;4.15;;
58354;SDS011;44160;49.080;19.302;2023-06-22T09:01:44;6.03;;;4.10;;
58354;SDS011;44160;49.080;19.302;2023-06-22T09:04:13;4.78;;;3.80;;
58354;SDS011;44160;49.080;19.302;2023-06-22T09:06:41;8.25;;;4.45;;
58354;SDS011;44160;49.080;19.302;2023-06-22T09:09:12;6.85;;;4.00;;
58354;SDS011;44160;49.080;19.302;2023-06-22T09:11:41;9.93;;;3.72;;
58354;SDS011;44160;49.080;19.302;2023-06-22T09:14:10;6.65;;;4.60;;
58354;SDS011;44160;49.080;19.302;2023-06-22T09:16:36;6.85;;;4.20;;
58354;SDS011;44160;49.080;19.302;2023-06-22T09:19:06;5.75;;;4.30;;
58354;SDS011;44160;49.080;19.302;2023-06-22T09:21:34;5.13;;;4.25;;
58354;SDS011;44160;49.080;19.302;2023-06-22T09:24:01;5.60;;;4.40;;
58354;SDS011;44160;49.080;19.302;2023-06-22T09:26:27;5.97;;;4.70;;
58354;SDS011;44160;49.080;19.302;2023-06-22T09:28:53;6.80;;;4.43;;
58354;SDS011;44160;49.080;19.302;2023-06-22T09:31:19;5.00;;;4.53;;
58354;SDS011;44160;49.080;19.302;2023-06-22T09:33:53;5.63;;;4.38;;
58354;SDS011;44160;49.080;19.302;2023-06-22T09:36:22;5.25;;;4.63;;
58354;SDS011;44160;49.080;19.302;2023-06-22T09:38:49;7.53;;;4.82;;
58354;SDS011;44160;49.080;19.302;2023-06-22T09:41:20;7.47;;;5.07;;
58354;SDS011;44160;49.080;19.302;2023-06-22T09:43:47;44.83;;;15.32;;
58354;SDS011;44160;49.080;19.302;2023-06-22T09:46:16;5.97;;;5.27;;
58354;SDS011;44160;49.080;19.302;2023-06-22T09:48:42;6.80;;;5.38;;
58354;SDS011;44160;49.080;19.302;2023-06-22T09:51:08;7.43;;;5.20;;
58354;SDS011;44160;49.080;19.302;2023-06-22T09:53:34;7.38;;;5.30;;
58354;SDS011;44160;49.080;19.302;2023-06-22T09:56:01;7.50;;;5.35;;
58354;SDS011;44160;49.080;19.302;2023-06-22T09:58:27;8.88;;;5.25;;
58354;SDS011;44160;49.080;19.302;2023-06-22T10:00:53;5.28;;;4.75;;
58354;SDS011;44160;49.080;19.302;2023-06-22T10:03:19;5.18;;;4.65;;
58354;SDS011;44160;49.080;19.302;2023-06-22T10:05:46;6.05;;;4.90;;
58354;SDS011;44160;49.080;19.302;2023-06-22T10:08:12;8.02;;;5.00;;
58354;SDS011;44160;49.080;19.302;2023-06-22T10:10:38;8.77;;;5.25;;
58354;SDS011;44160;49.080;19.302;2023-06-22T10:13:08;5.85;;;4.70;;
58354;SDS011;44160;49.080;19.302;2023-06-22T10:15:35;6.80;;;5.13;;
58354;SDS011;44160;49.080;19.302;2023-06-22T10:18:02;6.38;;;4.70;;
58354;SDS011;44160;49.080;19.302;2023-06-22T10:20:28;5.53;;;4.57;;
58354;SDS011;44160;49.080;19.302;2023-06-22T10:22:54;4.95;;;4.45;;
58354;SDS011;44160;49.080;19.302;2023-06-22T10:28:03;5.78;;;4.82;;
58354;SDS011;44160;49.080;19.302;2023-06-22T10:30:29;5.80;;;4.40;;
58354;SDS011;44160;49.080;19.302;2023-06-22T10:33:00;5.97;;;4.65;;
58354;SDS011;44160;49.080;19.302;2023-06-22T10:35:26;6.40;;;4.90;;
58354;SDS011;44160;49.080;19.302;2023-06-22T10:37:53;8.70;;;5.18;;
58354;SDS011;44160;49.080;19.302;2023-06-22T10:40:19;9.65;;;4.95;;
58354;SDS011;44160;49.080;19.302;2023-06-22T10:42:45;6.88;;;5.50;;
58354;SDS011;44160;49.080;19.302;2023-06-22T10:45:11;7.40;;;5.60;;
58354;SDS011;44160;49.080;19.302;2023-06-22T10:47:38;7.88;;;5.18;;
58354;SDS011;44160;49.080;19.302;2023-06-22T10:50:07;7.47;;;5.15;;
58354;SDS011;44160;49.080;19.302;2023-06-22T10:52:33;6.28;;;4.95;;
58354;SDS011;44160;49.080;19.302;2023-06-22T10:54:59;10.65;;;5.72;;
58354;SDS011;44160;49.080;19.302;2023-06-22T10:57:25;6.53;;;4.85;;
58354;SDS011;44160;49.080;19.302;2023-06-22T10:59:51;7.32;;;5.07;;
58354;SDS011;44160;49.080;19.302;2023-06-22T11:02:18;6.32;;;4.68;;
58354;SDS011;44160;49.080;19.302;2023-06-22T11:04:44;7.60;;;5.40;;
58354;SDS011;44160;49.080;19.302;2023-06-22T11:07:11;7.13;;;5.10;;
58354;SDS011;44160;49.080;19.302;2023-06-22T11:09:37;5.93;;;4.55;;
58354;SDS011;44160;49.080;19.302;2023-06-22T11:12:04;8.70;;;5.55;;
58354;SDS011;44160;49.080;19.302;2023-06-22T11:14:31;8.85;;;5.07;;
58354;SDS011;44160;49.080;19.302;2023-06-22T11:16:58;8.00;;;5.00;;
58354;SDS011;44160;49.080;19.302;2023-06-22T11:19:24;6.93;;;5.20;;
58354;SDS011;44160;49.080;19.302;2023-06-22T11:21:51;10.90;;;5.88;;
58354;SDS011;44160;49.080;19.302;2023-06-22T11:24:17;14.25;;;5.70;;
58354;SDS011;44160;49.080;19.302;2023-06-22T11:26:43;5.28;;;4.72;;
58354;SDS011;44160;49.080;19.302;2023-06-22T11:29:09;9.85;;;4.45;;
58354;SDS011;44160;49.080;19.302;2023-06-22T11:31:35;5.85;;;4.15;;
58354;SDS011;44160;49.080;19.302;2023-06-22T11:34:01;6.00;;;4.60;;
58354;SDS011;44160;49.080;19.302;2023-06-22T11:36:28;6.82;;;4.75;;
58354;SDS011;44160;49.080;19.302;2023-06-22T11:38:57;5.07;;;4.50;;
58354;SDS011;44160;49.080;19.302;2023-06-22T11:41:23;10.40;;;5.13;;
58354;SDS011;44160;49.080;19.302;2023-06-22T11:43:49;6.80;;;5.03;;
58354;SDS011;44160;49.080;19.302;2023-06-22T11:46:15;8.48;;;4.70;;
58354;SDS011;44160;49.080;19.302;2023-06-22T11:48:42;6.63;;;4.60;;
58354;SDS011;44160;49.080;19.302;2023-06-22T11:51:08;6.25;;;5.07;;
58354;SDS011;44160;49.080;19.302;2023-06-22T11:53:35;7.40;;;5.30;;
58354;SDS011;44160;49.080;19.302;2023-06-22T11:56:02;6.60;;;5.05;;
58354;SDS011;44160;49.080;19.302;2023-06-22T11:58:28;6.13;;;4.57;;
58354;SDS011;44160;49.080;19.302;2023-06-22T12:00:54;8.10;;;4.68;;
58354;SDS011;44160;49.080;19.302;2023-06-22T12:03:20;5.93;;;5.13;;
58354;SDS011;44160;49.080;19.302;2023-06-22T12:05:46;6.45;;;4.63;;
58354;SDS011;44160;49.080;19.302;2023-06-22T12:08:12;5.18;;;4.50;;
58354;SDS011;44160;49.080;19.302;2023-06-22T12:10:39;8.65;;;4.53;;
58354;SDS011;44160;49.080;19.302;2023-06-22T12:13:05;5.20;;;4.32;;
58354;SDS011;44160;49.080;19.302;2023-06-22T12:15:31;6.97;;;4.78;;
58354;SDS011;44160;49.080;19.302;2023-06-22T12:17:57;5.55;;;4.32;;
58354;SDS011;44160;49.080;19.302;2023-06-22T12:20:23;8.88;;;4.78;;
58354;SDS011;44160;49.080;19.302;2023-06-22T12:22:49;5.72;;;4.93;;
58354;SDS011;44160;49.080;19.302;2023-06-22T12:25:16;7.65;;;4.90;;
58354;SDS011;44160;49.080;19.302;2023-06-22T12:27:42;6.57;;;4.53;;
58354;SDS011;44160;49.080;19.302;2023-06-22T12:30:09;7.30;;;4.70;;
58354;SDS011;44160;49.080;19.302;2023-06-22T12:32:35;5.45;;;4.30;;
58354;SDS011;44160;49.080;19.302;2023-06-22T12:35:01;9.18;;;5.40;;
58354;SDS011;44160;49.080;19.302;2023-06-22T12:37:27;6.90;;;4.30;;
58354;SDS011;44160;49.080;19.302;2023-06-22T12:39:54;6.85;;;4.72;;
58354;SDS011;44160;49.080;19.302;2023-06-22T12:42:20;6.30;;;4.43;;
58354;SDS011;44160;49.080;19.302;2023-06-22T12:44:46;5.80;;;4.50;;
58354;SDS011;44160;49.080;19.302;2023-06-22T12:47:12;5.65;;;4.25;;
58354;SDS011;44160;49.080;19.302;2023-06-22T12:49:38;7.15;;;4.35;;
58354;SDS011;44160;49.080;19.302;2023-06-22T12:52:11;12.18;;;4.57;;
58354;SDS011;44160;49.080;19.302;2023-06-22T12:54:37;5.72;;;4.63;;
58354;SDS011;44160;49.080;19.302;2023-06-22T12:57:03;8.35;;;5.13;;
58354;SDS011;44160;49.080;19.302;2023-06-22T12:59:29;9.73;;;5.07;;
58354;SDS011;44160;49.080;19.302;2023-06-22T13:01:55;7.38;;;4.10;;
58354;SDS011;44160;49.080;19.302;2023-06-22T13:04:21;5.90;;;4.20;;
58354;SDS011;44160;49.080;19.302;2023-06-22T13:06:47;6.47;;;4.50;;
58354;SDS011;44160;49.080;19.302;2023-06-22T13:09:14;10.40;;;4.57;;
58354;SDS011;44160;49.080;19.302;2023-06-22T13:11:40;8.05;;;5.78;;
58354;SDS011;44160;49.080;19.302;2023-06-22T13:14:07;7.93;;;4.70;;
58354;SDS011;44160;49.080;19.302;2023-06-22T13:16:33;9.95;;;4.97;;
58354;SDS011;44160;49.080;19.302;2023-06-22T13:18:59;7.43;;;4.78;;
58354;SDS011;44160;49.080;19.302;2023-06-22T13:21:25;6.45;;;4.45;;
58354;SDS011;44160;49.080;19.302;2023-06-22T13:23:51;6.35;;;4.25;;
58354;SDS011;44160;49.080;19.302;2023-06-22T13:26:17;6.40;;;4.30;;
58354;SDS011;44160;49.080;19.302;2023-06-22T13:28:46;4.47;;;3.97;;
58354;SDS011;44160;49.080;19.302;2023-06-22T13:31:12;7.53;;;4.18;;
58354;SDS011;44160;49.080;19.302;2023-06-22T13:33:38;6.63;;;4.15;;
58354;SDS011;44160;49.080;19.302;2023-06-22T13:36:05;6.03;;;3.92;;
58354;SDS011;44160;49.080;19.302;2023-06-22T13:38:32;7.55;;;4.80;;
58354;SDS011;44160;49.080;19.302;2023-06-22T13:40:58;6.63;;;4.25;;
58354;SDS011;44160;49.080;19.302;2023-06-22T13:43:26;4.80;;;3.83;;
58354;SDS011;44160;49.080;19.302;2023-06-22T13:45:52;8.10;;;4.25;;
58354;SDS011;44160;49.080;19.302;2023-06-22T13:48:19;6.35;;;4.72;;
58354;SDS011;44160;49.080;19.302;2023-06-22T13:50:45;7.95;;;4.90;;
58354;SDS011;44160;49.080;19.302;2023-06-22T13:53:11;5.90;;;4.70;;
58354;SDS011;44160;49.080;19.302;2023-06-22T13:55:37;5.53;;;4.50;;
58354;SDS011;44160;49.080;19.302;2023-06-22T13:58:03;6.57;;;4.28;;
58354;SDS011;44160;49.080;19.302;2023-06-22T14:00:29;5.82;;;4.40;;
58354;SDS011;44160;49.080;19.302;2023-06-22T14:02:55;7.78;;;4.93;;
58354;SDS011;44160;49.080;19.302;2023-06-22T14:05:21;5.32;;;4.20;;
58354;SDS011;44160;49.080;19.302;2023-06-22T14:07:47;5.38;;;4.15;;
58354;SDS011;44160;49.080;19.302;2023-06-22T14:10:13;7.55;;;4.50;;
58354;SDS011;44160;49.080;19.302;2023-06-22T14:12:39;5.85;;;4.07;;
58354;SDS011;44160;49.080;19.302;2023-06-22T14:15:05;6.25;;;4.32;;
58354;SDS011;44160;49.080;19.302;2023-06-22T14:17:32;6.78;;;4.75;;
58354;SDS011;44160;49.080;19.302;2023-06-22T14:19:58;6.03;;;4.75;;
58354;SDS011;44160;49.080;19.302;2023-06-22T14:22:24;5.20;;;4.10;;
58354;SDS011;44160;49.080;19.302;2023-06-22T14:24:52;9.68;;;4.55;;
58354;SDS011;44160;49.080;19.302;2023-06-22T14:27:18;8.23;;;4.43;;
58354;SDS011;44160;49.080;19.302;2023-06-22T14:29:44;7.28;;;4.70;;
58354;SDS011;44160;49.080;19.302;2023-06-22T14:32:13;7.78;;;4.47;;
58354;SDS011;44160;49.080;19.302;2023-06-22T14:34:39;6.35;;;3.78;;
58354;SDS011;44160;49.080;19.302;2023-06-22T14:37:06;5.10;;;3.83;;
58354;SDS011;44160;49.080;19.302;2023-06-22T14:39:32;9.63;;;4.32;;
58354;SDS011;44160;49.080;19.302;2023-06-22T14:41:58;5.18;;;4.30;;
58354;SDS011;44160;49.080;19.302;2023-06-22T14:44:25;9.90;;;4.55;;